createdAt,value
2023-01-13T00:00:45.540Z,20.46
2023-01-13T00:03:11.967Z,20.44
2023-01-13T00:05:38.351Z,20.42
2023-01-13T00:08:06.252Z,20.40
2023-01-13T00:10:33.494Z,20.38
2023-01-13T00:12:59.909Z,20.37
2023-01-13T00:15:26.346Z,20.36
2023-01-13T00:17:52.675Z,20.35
2023-01-13T00:20:19.402Z,20.34
2023-01-13T00:22:45.849Z,20.33
2023-01-13T00:25:12.599Z,20.33
2023-01-13T00:27:39.391Z,20.32
2023-01-13T00:30:06.529Z,20.32
2023-01-13T00:32:33.423Z,20.32
2023-01-13T00:34:59.843Z,20.32
2023-01-13T00:37:26.651Z,20.32
2023-01-13T00:39:53.060Z,20.31
2023-01-13T00:42:38.366Z,20.31
2023-01-13T00:45:05.063Z,20.31
2023-01-13T00:47:31.668Z,20.32
2023-01-13T00:49:57.995Z,20.32
2023-01-13T00:52:24.325Z,20.32
2023-01-13T00:54:50.685Z,20.31
2023-01-13T00:57:17.011Z,20.30
2023-01-13T00:59:43.438Z,20.31
2023-01-13T01:02:09.890Z,20.31
2023-01-13T01:04:36.413Z,20.30
2023-01-13T01:07:02.853Z,20.31
2023-01-13T01:09:32.718Z,20.32
2023-01-13T01:11:59.821Z,20.31
2023-01-13T01:14:27.194Z,20.32
2023-01-13T01:16:54.416Z,20.31
2023-01-13T01:19:20.739Z,20.31
2023-01-13T01:21:47.192Z,20.33
2023-01-13T01:24:13.544Z,20.33
2023-01-13T01:26:42.849Z,20.34
2023-01-13T01:29:12.013Z,20.32
2023-01-13T01:31:38.396Z,20.33
2023-01-13T01:34:04.837Z,20.34
2023-01-13T01:36:31.301Z,20.34
2023-01-13T01:38:58.518Z,20.34
2023-01-13T01:41:27.786Z,20.34
2023-01-13T01:44:08.004Z,20.33
2023-01-13T01:46:44.396Z,20.33
2023-01-13T01:49:10.792Z,20.31
2023-01-13T01:51:41.730Z,20.33
2023-01-13T01:54:10.293Z,20.33
2023-01-13T01:56:37.162Z,20.32
2023-01-13T01:59:03.607Z,20.33
2023-01-13T02:01:30.108Z,20.33
2023-01-13T02:03:59.375Z,20.34
2023-01-13T02:06:27.041Z,20.33
2023-01-13T02:08:54.036Z,20.33
2023-01-13T02:11:52.651Z,20.34
2023-01-13T02:14:20.752Z,20.33
2023-01-13T02:16:59.419Z,20.34
2023-01-13T02:19:42.024Z,20.33
2023-01-13T02:22:08.338Z,20.34
2023-01-13T02:24:56.365Z,20.33
2023-01-13T02:27:41.567Z,20.33
2023-01-13T02:30:32.232Z,20.32
2023-01-13T02:33:17.378Z,20.31
2023-01-13T02:35:43.682Z,20.31
2023-01-13T02:38:11.127Z,20.31
2023-01-13T02:40:50.438Z,20.30
2023-01-13T02:43:44.541Z,20.30
2023-01-13T02:46:15.394Z,20.30
2023-01-13T02:48:44.208Z,20.29
2023-01-13T02:51:13.862Z,20.29
2023-01-13T02:53:46.111Z,20.29
2023-01-13T02:56:15.008Z,20.29
2023-01-13T02:58:43.744Z,20.28
2023-01-13T03:01:10.241Z,20.27
2023-01-13T03:03:36.861Z,20.26
2023-01-13T03:06:06.496Z,20.26
2023-01-13T03:08:53.127Z,20.25
2023-01-13T03:11:20.390Z,20.24
2023-01-13T03:13:46.791Z,20.25
2023-01-13T03:16:19.323Z,20.24
2023-01-13T03:18:50.819Z,20.23
2023-01-13T03:21:35.979Z,20.22
2023-01-13T03:24:22.039Z,20.22
2023-01-13T03:27:00.462Z,20.21
2023-01-13T03:29:31.908Z,20.19
2023-01-13T03:32:05.590Z,20.21
2023-01-13T03:34:35.062Z,20.20
2023-01-13T03:37:03.660Z,20.20
2023-01-13T03:39:32.827Z,20.21
2023-01-13T03:42:02.213Z,20.21
2023-01-13T03:44:38.596Z,20.20
2023-01-13T03:47:11.264Z,20.21
2023-01-13T03:49:41.186Z,20.21
2023-01-13T03:52:09.973Z,20.23
2023-01-13T03:54:41.911Z,20.24
2023-01-13T03:57:10.589Z,20.22
2023-01-13T03:59:40.166Z,20.21
2023-01-13T04:02:35.983Z,20.21
2023-01-13T04:05:06.578Z,20.20
2023-01-13T04:07:39.409Z,20.20
2023-01-13T04:10:07.639Z,20.20
2023-01-13T04:13:01.898Z,20.19
2023-01-13T04:15:33.592Z,20.20
2023-01-13T04:18:15.219Z,20.20
2023-01-13T04:20:42.569Z,20.20
2023-01-13T04:23:09.216Z,20.21
2023-01-13T04:25:36.016Z,20.19
2023-01-13T04:28:02.909Z,20.19
2023-01-13T04:30:29.251Z,20.18
2023-01-13T04:32:55.633Z,20.19
2023-01-13T04:35:22.016Z,20.17
2023-01-13T04:37:48.573Z,20.17
2023-01-13T04:40:14.991Z,20.17
2023-01-13T04:42:43.126Z,20.13
2023-01-13T04:45:09.767Z,20.13
2023-01-13T04:47:36.120Z,20.13
2023-01-13T04:50:02.591Z,20.14
2023-01-13T04:52:29.038Z,20.13
2023-01-13T04:54:55.431Z,20.13
2023-01-13T04:57:21.814Z,20.13
2023-01-13T04:59:48.221Z,20.15
2023-01-13T05:02:19.996Z,20.13
2023-01-13T05:04:47.386Z,20.13
2023-01-13T05:07:14.671Z,20.13
2023-01-13T05:09:41.096Z,20.13
2023-01-13T05:12:26.335Z,20.15
2023-01-13T05:15:11.230Z,20.14
2023-01-13T05:17:37.775Z,20.15
2023-01-13T05:20:04.606Z,20.14
2023-01-13T05:22:49.725Z,20.13
2023-01-13T05:25:22.019Z,20.14
2023-01-13T05:27:49.167Z,20.14
2023-01-13T05:30:16.386Z,20.14
2023-01-13T05:32:43.205Z,20.14
2023-01-13T05:35:09.677Z,20.13
2023-01-13T05:37:36.347Z,20.14
2023-01-13T05:40:21.570Z,20.15
2023-01-13T05:43:06.508Z,20.11
2023-01-13T05:45:32.903Z,20.13
2023-01-13T05:47:59.288Z,20.13
2023-01-13T05:50:25.708Z,20.13
2023-01-13T05:52:52.116Z,20.13
2023-01-13T05:55:18.547Z,20.16
2023-01-13T05:57:44.992Z,20.15
2023-01-13T06:00:11.621Z,20.17
2023-01-13T06:02:38.030Z,20.16
2023-01-13T06:05:04.584Z,20.16
2023-01-13T06:07:31.016Z,20.15
2023-01-13T06:09:57.367Z,20.17
2023-01-13T06:12:23.746Z,20.16
2023-01-13T06:14:50.206Z,20.16
2023-01-13T06:17:16.642Z,20.17
2023-01-13T06:19:43.050Z,20.17
2023-01-13T06:22:21.663Z,20.17
2023-01-13T06:24:49.569Z,20.17
2023-01-13T06:27:16.732Z,20.17
2023-01-13T06:29:43.255Z,20.17
2023-01-13T06:32:13.094Z,20.18
2023-01-13T06:34:41.144Z,20.18
2023-01-13T06:37:07.762Z,20.18
2023-01-13T06:39:35.909Z,20.18
2023-01-13T06:42:21.551Z,20.18
2023-01-13T06:44:48.788Z,20.18
2023-01-13T06:47:15.153Z,20.17
2023-01-13T06:49:41.535Z,20.19
2023-01-13T06:52:07.923Z,20.18
2023-01-13T06:54:34.728Z,20.19
2023-01-13T06:57:01.966Z,20.18
2023-01-13T06:59:28.393Z,20.18
2023-01-13T07:01:55.005Z,20.19
2023-01-13T07:04:21.463Z,20.18
2023-01-13T07:06:47.844Z,20.18
2023-01-13T07:09:14.416Z,20.17
2023-01-13T07:11:40.864Z,20.16
2023-01-13T07:14:26.019Z,20.16
2023-01-13T07:16:53.654Z,20.17
2023-01-13T07:19:23.743Z,20.14
2023-01-13T07:21:52.744Z,20.15
2023-01-13T07:24:19.319Z,20.15
2023-01-13T07:26:46.111Z,20.16
2023-01-13T07:29:12.649Z,20.18
2023-01-13T07:31:39.889Z,20.18
2023-01-13T07:34:07.282Z,20.18
2023-01-13T07:36:33.711Z,20.17
2023-01-13T07:39:00.170Z,20.18
2023-01-13T07:41:45.336Z,20.19
2023-01-13T07:44:11.826Z,20.20
2023-01-13T07:46:40.276Z,20.19
2023-01-13T07:49:07.905Z,20.20
2023-01-13T07:51:38.647Z,20.19
2023-01-13T07:54:05.561Z,20.20
2023-01-13T07:56:32.015Z,20.20
2023-01-13T07:59:01.723Z,20.20
2023-01-13T08:01:29.176Z,20.18
2023-01-13T08:03:56.278Z,20.19
2023-01-13T08:06:22.819Z,20.19
2023-01-13T08:08:50.105Z,20.17
2023-01-13T08:11:23.746Z,20.18
2023-01-13T08:13:57.280Z,20.17
2023-01-13T08:16:25.130Z,20.16
2023-01-13T08:18:53.043Z,20.15
2023-01-13T08:21:24.511Z,20.16
2023-01-13T08:24:08.324Z,20.13
2023-01-13T08:26:43.916Z,20.13
2023-01-13T08:29:14.669Z,20.13
2023-01-13T08:31:43.517Z,20.12
2023-01-13T08:34:14.789Z,20.10
2023-01-13T08:36:49.120Z,20.11
2023-01-13T08:42:24.941Z,20.10
2023-01-13T08:44:54.146Z,20.09
2023-01-13T08:47:22.274Z,20.08
2023-01-13T08:50:11.536Z,20.07
2023-01-13T08:55:20.473Z,20.07
2023-01-13T08:57:47.157Z,20.07
2023-01-13T09:00:13.910Z,20.06
2023-01-13T09:02:40.353Z,20.06
2023-01-13T09:05:07.320Z,20.08
2023-01-13T09:07:35.173Z,20.08
2023-01-13T09:10:02.142Z,20.09
2023-01-13T09:12:47.429Z,20.09
2023-01-13T09:15:14.173Z,20.10
2023-01-13T09:17:40.699Z,20.12
2023-01-13T09:20:07.420Z,20.12
2023-01-13T09:22:36.488Z,20.14
2023-01-13T09:25:03.549Z,20.15
2023-01-13T09:27:30.184Z,20.14
2023-01-13T09:29:56.860Z,20.15
2023-01-13T09:32:23.425Z,20.16
2023-01-13T09:35:02.007Z,20.17
2023-01-13T09:37:38.867Z,20.17
2023-01-13T09:40:07.070Z,20.18
2023-01-13T09:43:00.421Z,20.17
2023-01-13T09:46:02.170Z,20.15
2023-01-13T09:48:31.793Z,20.16
2023-01-13T09:51:03.236Z,20.14
2023-01-13T09:53:36.741Z,20.12
2023-01-13T09:56:03.337Z,20.13
2023-01-13T09:58:29.856Z,20.12
2023-01-13T10:01:08.702Z,20.11
2023-01-13T10:03:35.555Z,20.11
2023-01-13T10:06:16.640Z,20.11
2023-01-13T10:08:44.407Z,20.10
2023-01-13T10:11:39.352Z,20.09
2023-01-13T10:14:11.851Z,20.09
2023-01-13T10:16:45.846Z,20.09
2023-01-13T10:19:16.785Z,20.09
2023-01-13T10:21:55.107Z,20.11
2023-01-13T10:24:29.695Z,20.11
2023-01-13T10:27:19.062Z,20.10
2023-01-13T10:29:45.595Z,20.13
2023-01-13T10:32:12.087Z,20.13
2023-01-13T10:34:50.910Z,20.15
2023-01-13T10:37:25.965Z,20.14
2023-01-13T10:39:55.303Z,20.15
2023-01-13T10:42:23.857Z,20.18
2023-01-13T10:44:54.663Z,20.16
2023-01-13T10:47:24.131Z,20.17
2023-01-13T10:50:01.299Z,20.16
2023-01-13T10:52:29.176Z,20.15
2023-01-13T10:54:55.959Z,20.14
2023-01-13T10:57:27.086Z,20.13
2023-01-13T10:59:54.774Z,20.13
2023-01-13T11:02:27.630Z,20.11
2023-01-13T11:04:54.208Z,20.11
2023-01-13T11:07:20.592Z,20.10
2023-01-13T11:09:47.055Z,20.10
2023-01-13T11:12:33.474Z,20.10
2023-01-13T11:15:07.732Z,20.08
2023-01-13T11:17:45.318Z,20.07
2023-01-13T11:20:11.690Z,20.06
2023-01-13T11:22:45.347Z,20.06
2023-01-13T11:25:16.278Z,20.06
2023-01-13T11:27:44.241Z,20.06
2023-01-13T11:30:10.784Z,20.05
2023-01-13T11:32:40.890Z,20.04
2023-01-13T11:35:16.359Z,20.02
2023-01-13T11:37:45.410Z,20.03
2023-01-13T11:40:23.823Z,20.02
2023-01-13T11:42:59.937Z,20.00
2023-01-13T11:45:34.095Z,19.99
2023-01-13T11:48:01.655Z,19.98
2023-01-13T11:50:34.479Z,19.99
2023-01-13T11:53:16.074Z,19.98
2023-01-13T11:55:51.774Z,19.96
2023-01-13T11:58:24.457Z,19.97
2023-01-13T12:00:57.455Z,19.97
2023-01-13T12:03:31.183Z,19.96
2023-01-13T12:06:15.899Z,19.96
2023-01-13T12:08:59.528Z,19.95
2023-01-13T12:11:33.514Z,19.95
2023-01-13T12:14:19.343Z,19.94
2023-01-13T12:16:49.579Z,19.93
2023-01-13T12:19:16.004Z,19.93
2023-01-13T12:21:45.482Z,19.92
2023-01-13T12:24:23.043Z,19.91
2023-01-13T12:26:54.433Z,19.92
2023-01-13T12:29:26.718Z,19.90
2023-01-13T12:31:53.610Z,19.90
2023-01-13T12:34:22.780Z,19.89
2023-01-13T12:36:52.061Z,19.89
2023-01-13T12:39:51.104Z,19.89
2023-01-13T12:42:36.168Z,19.89
2023-01-13T12:45:07.422Z,19.88
2023-01-13T12:47:38.328Z,19.86
2023-01-13T12:50:36.458Z,19.85
2023-01-13T12:53:29.314Z,19.85
2023-01-13T12:56:15.634Z,19.85
2023-01-13T12:58:42.094Z,19.85
2023-01-13T13:01:13.036Z,19.84
2023-01-13T13:03:39.733Z,19.82
2023-01-13T13:06:08.052Z,19.84
2023-01-13T13:08:43.569Z,19.81
2023-01-13T13:11:33.019Z,19.82
2023-01-13T13:14:00.507Z,19.82
2023-01-13T13:16:27.512Z,19.81
2023-01-13T13:19:14.777Z,19.81
2023-01-13T13:21:59.976Z,19.80
2023-01-13T13:24:26.657Z,19.83
2023-01-13T13:26:57.574Z,19.83
2023-01-13T13:29:48.547Z,19.84
2023-01-13T13:32:27.600Z,19.83
2023-01-13T13:35:12.636Z,19.82
2023-01-13T13:38:04.020Z,19.81
2023-01-13T13:40:51.293Z,19.80
2023-01-13T13:43:38.618Z,19.79
2023-01-13T13:46:40.735Z,19.80
2023-01-13T13:49:07.184Z,19.79
2023-01-13T13:51:39.187Z,19.79
2023-01-13T13:54:10.315Z,19.80
2023-01-13T13:56:40.664Z,19.79
2023-01-13T13:59:11.059Z,19.80
2023-01-13T14:01:41.364Z,19.79
2023-01-13T14:04:11.024Z,19.80
2023-01-13T14:06:43.457Z,19.79
2023-01-13T14:09:16.910Z,19.79
2023-01-13T14:11:43.290Z,19.79
2023-01-13T14:14:13.818Z,19.79
2023-01-13T14:16:41.053Z,19.77
2023-01-13T14:19:22.565Z,19.76
2023-01-13T14:21:48.954Z,19.77
2023-01-13T14:24:16.145Z,19.75
2023-01-13T14:26:42.568Z,19.73
2023-01-13T14:29:13.446Z,19.73
2023-01-13T14:31:40.357Z,19.72
2023-01-13T14:34:30.559Z,19.72
2023-01-13T14:36:54.535Z,19.70
2023-01-13T14:39:25.255Z,19.70
2023-01-13T14:41:52.985Z,19.70
2023-01-13T14:44:26.821Z,19.70
2023-01-13T14:46:57.228Z,19.69
2023-01-13T14:49:46.681Z,19.68
2023-01-13T14:52:18.957Z,19.68
2023-01-13T14:54:45.409Z,19.67
2023-01-13T14:57:16.207Z,19.67
2023-01-13T14:59:56.185Z,19.67
2023-01-13T15:02:25.664Z,19.66
2023-01-13T15:04:57.743Z,19.65
2023-01-13T15:07:28.242Z,19.65
2023-01-13T15:10:02.466Z,19.64
2023-01-13T15:12:31.949Z,19.63
2023-01-13T15:14:58.693Z,19.63
2023-01-13T15:17:25.096Z,19.61
2023-01-13T15:19:53.273Z,19.62
2023-01-13T15:22:19.679Z,19.62
2023-01-13T15:24:46.842Z,19.61
2023-01-13T15:27:22.350Z,19.61
2023-01-13T15:29:49.043Z,19.60
2023-01-13T15:32:19.737Z,19.60
2023-01-13T15:34:46.900Z,19.59
2023-01-13T15:37:17.080Z,19.59
2023-01-13T15:39:45.731Z,19.60
2023-01-13T15:42:31.440Z,19.58
2023-01-13T15:45:16.423Z,19.58
2023-01-13T15:47:43.943Z,19.57
2023-01-13T15:50:14.017Z,19.56
2023-01-13T15:52:40.433Z,19.57
2023-01-13T15:55:06.941Z,19.57
2023-01-13T15:57:34.684Z,19.57
2023-01-13T16:00:04.024Z,19.57
2023-01-13T16:02:31.115Z,19.56
2023-01-13T16:04:57.574Z,19.56
2023-01-13T16:07:25.077Z,19.56
2023-01-13T16:09:52.012Z,19.57
2023-01-13T16:12:18.494Z,19.58
2023-01-13T16:14:45.027Z,19.59
2023-01-13T16:17:18.829Z,19.58
2023-01-13T16:19:45.557Z,19.58
2023-01-13T16:22:14.207Z,19.58
2023-01-13T16:24:41.057Z,19.58
2023-01-13T16:27:18.639Z,19.57
2023-01-13T16:30:01.189Z,19.58
2023-01-13T16:32:27.677Z,19.56
2023-01-13T16:34:54.096Z,19.57
2023-01-13T16:37:21.859Z,19.55
2023-01-13T16:39:48.328Z,19.56
2023-01-13T16:42:14.736Z,19.55
2023-01-13T16:44:41.235Z,19.56
2023-01-13T16:47:12.772Z,19.56
2023-01-13T16:49:39.192Z,19.55
2023-01-13T16:52:05.584Z,19.55
2023-01-13T16:54:31.986Z,19.54
2023-01-13T16:56:58.494Z,19.53
2023-01-13T16:59:24.931Z,19.54
2023-01-13T17:01:51.944Z,19.54
2023-01-13T17:04:19.451Z,19.52
2023-01-13T17:06:48.912Z,19.52
2023-01-13T17:09:17.172Z,19.50
2023-01-13T17:11:43.655Z,19.50
2023-01-13T17:14:18.577Z,19.49
2023-01-13T17:16:46.332Z,19.47
2023-01-13T17:19:13.330Z,19.46
2023-01-13T17:21:40.424Z,19.46
2023-01-13T17:24:07.952Z,19.46
2023-01-13T17:26:37.189Z,19.46
2023-01-13T17:29:08.709Z,19.46
2023-01-13T17:31:35.583Z,19.45
2023-01-13T17:34:02.918Z,19.45
2023-01-13T17:36:29.326Z,19.45
2023-01-13T17:38:56.318Z,19.44
2023-01-13T17:41:23.178Z,19.44
2023-01-13T17:43:49.661Z,19.46
2023-01-13T17:46:19.753Z,19.46
2023-01-13T17:48:46.870Z,19.45
2023-01-13T17:51:14.379Z,19.44
2023-01-13T17:53:40.963Z,19.44
2023-01-13T17:56:08.487Z,19.45
2023-01-13T17:58:35.214Z,19.44
2023-01-13T18:01:06.548Z,19.44
2023-01-13T18:03:32.989Z,19.40
2023-01-13T18:06:07.039Z,19.41
2023-01-13T18:08:33.468Z,19.41
2023-01-13T18:11:00.803Z,19.41
2023-01-13T18:13:28.184Z,19.41
2023-01-13T18:16:03.130Z,19.42
2023-01-13T18:18:29.676Z,19.38
2023-01-13T18:21:14.967Z,19.38
2023-01-13T18:23:59.895Z,19.37
2023-01-13T18:26:46.301Z,19.37
2023-01-13T18:29:12.742Z,19.36
2023-01-13T18:31:39.137Z,19.36
2023-01-13T18:34:05.513Z,19.35
2023-01-13T18:36:31.846Z,19.36
2023-01-13T18:38:58.809Z,19.36
2023-01-13T18:41:48.441Z,19.36
2023-01-13T18:44:14.845Z,19.35
2023-01-13T18:46:41.301Z,19.35
2023-01-13T18:49:07.770Z,19.35
2023-01-13T18:51:34.186Z,19.34
2023-01-13T18:54:00.945Z,19.35
2023-01-13T18:56:27.351Z,19.36
2023-01-13T18:58:56.475Z,19.37
2023-01-13T19:01:25.725Z,19.37
2023-01-13T19:03:59.519Z,19.37
2023-01-13T19:06:27.755Z,19.37
2023-01-13T19:08:55.516Z,19.39
2023-01-13T19:11:23.048Z,19.41
2023-01-13T19:13:50.350Z,19.38
2023-01-13T19:16:25.841Z,19.38
2023-01-13T19:18:52.223Z,19.38
2023-01-13T19:21:18.670Z,19.39
2023-01-13T19:23:45.264Z,19.38
2023-01-13T19:26:12.305Z,19.36
2023-01-13T19:28:40.175Z,19.36
2023-01-13T19:31:10.426Z,19.37
2023-01-13T19:33:38.154Z,19.35
2023-01-13T19:36:05.309Z,19.34
2023-01-13T19:38:31.946Z,19.33
2023-01-13T19:40:59.524Z,19.33
2023-01-13T19:43:45.138Z,19.33
2023-01-13T19:46:11.830Z,19.32
2023-01-13T19:48:38.792Z,19.31
2023-01-13T19:51:06.190Z,19.33
2023-01-13T19:53:32.693Z,19.31
2023-01-13T19:55:59.296Z,19.32
2023-01-13T19:58:26.306Z,19.31
2023-01-13T20:00:53.802Z,19.32
2023-01-13T20:03:24.216Z,19.30
2023-01-13T20:05:51.518Z,19.30
2023-01-13T20:08:18.596Z,19.30
2023-01-13T20:10:46.019Z,19.31
2023-01-13T20:13:12.459Z,19.31
2023-01-13T20:15:39.925Z,19.31
2023-01-13T20:18:06.667Z,19.32
2023-01-13T20:20:33.185Z,19.31
2023-01-13T20:22:59.825Z,19.30
2023-01-13T20:25:28.792Z,19.31
2023-01-13T20:27:56.364Z,19.31
2023-01-13T20:30:23.486Z,19.30
2023-01-13T20:32:50.239Z,19.30
2023-01-13T20:35:17.229Z,19.31
2023-01-13T20:37:43.772Z,19.30
2023-01-13T20:40:15.082Z,19.29
2023-01-13T20:42:47.609Z,19.28
2023-01-13T20:45:17.665Z,19.29
2023-01-13T20:47:45.201Z,19.28
2023-01-13T20:50:12.335Z,19.28
2023-01-13T20:52:39.084Z,19.27
2023-01-13T20:55:06.493Z,19.27
2023-01-13T20:57:33.152Z,19.27
2023-01-13T20:59:59.771Z,19.28
2023-01-13T21:02:26.258Z,19.29
2023-01-13T21:04:52.785Z,19.28
2023-01-13T21:07:19.246Z,19.28
2023-01-13T21:09:45.729Z,19.28
2023-01-13T21:12:34.441Z,19.28
2023-01-13T21:15:19.852Z,19.28
2023-01-13T21:18:05.754Z,19.27
2023-01-13T21:20:33.581Z,19.28
2023-01-13T21:23:01.287Z,19.28
2023-01-13T21:25:27.915Z,19.27
2023-01-13T21:27:55.509Z,19.28
2023-01-13T21:30:22.746Z,19.27
2023-01-13T21:32:49.807Z,19.27
2023-01-13T21:35:16.327Z,19.27
2023-01-13T21:37:43.336Z,19.26
2023-01-13T21:40:11.311Z,19.26
2023-01-13T21:42:56.279Z,19.27
2023-01-13T21:45:41.147Z,19.26
2023-01-13T21:48:08.451Z,19.26
2023-01-13T21:50:36.293Z,19.26
2023-01-13T21:53:02.690Z,19.27
2023-01-13T21:55:29.435Z,19.26
2023-01-13T21:57:57.365Z,19.27
2023-01-13T22:00:25.536Z,19.27
2023-01-13T22:02:52.796Z,19.28
2023-01-13T22:05:20.982Z,19.29
2023-01-13T22:07:47.473Z,19.29
2023-01-13T22:10:15.185Z,19.29
2023-01-13T22:12:43.242Z,19.29
2023-01-13T22:15:10.214Z,19.29
2023-01-13T22:17:36.572Z,19.30
2023-01-13T22:20:03.936Z,19.31
2023-01-13T22:22:36.446Z,19.31
2023-01-13T22:25:08.097Z,19.31
2023-01-13T22:27:40.973Z,19.31
2023-01-13T22:30:08.710Z,19.30
2023-01-13T22:32:36.332Z,19.28
2023-01-13T22:35:03.187Z,19.29
2023-01-13T22:37:29.611Z,19.29
2023-01-13T22:39:56.061Z,19.29
2023-01-13T22:42:22.477Z,19.28
2023-01-13T22:44:48.945Z,19.29
2023-01-13T22:47:15.366Z,19.29
2023-01-13T22:49:43.112Z,19.28
2023-01-13T22:52:09.523Z,19.27
2023-01-13T22:54:35.863Z,19.28
2023-01-13T22:57:02.253Z,19.27
2023-01-13T22:59:28.603Z,19.29
2023-01-13T23:01:54.942Z,19.27
2023-01-13T23:04:21.412Z,19.28
2023-01-13T23:06:47.949Z,19.28
2023-01-13T23:09:14.394Z,19.27
2023-01-13T23:11:41.247Z,19.28
2023-01-13T23:14:09.053Z,19.28
2023-01-13T23:16:37.144Z,19.30
2023-01-13T23:19:04.417Z,19.29
2023-01-13T23:21:32.183Z,19.30
2023-01-13T23:23:59.046Z,19.30
2023-01-13T23:26:26.229Z,19.30
2023-01-13T23:28:52.667Z,19.30
2023-01-13T23:31:20.434Z,19.30
2023-01-13T23:33:47.242Z,19.30
2023-01-13T23:36:18.127Z,19.30
2023-01-13T23:38:45.025Z,19.31
2023-01-13T23:41:13.725Z,19.30
2023-01-13T23:43:40.420Z,19.32
2023-01-13T23:46:07.976Z,19.31
2023-01-13T23:48:35.233Z,19.31
2023-01-13T23:51:02.825Z,19.31
2023-01-13T23:53:33.432Z,19.31
2023-01-13T23:56:01.275Z,19.31
2023-01-13T23:58:28.540Z,19.31
